Strona główna
METAR-TAF:

METAR-TAF

Lotnisko :

Port lotniczy Ndżamena

Ndżamena, Czad

Szerokość geograficzna: 12-08N, Długość geograficzna: 015-02E, wysokość: 295 m

Aktualna obserwacja pogody

Raport powstał 1 godzina i 3 minut temu, godzina 11:00 UTC
Wiatr 18 kt od północ, zmienny między północ i wschodnio-północny wschód
Temperatura 30°C
Wilgotność 13%
Ciśnienie 1014 hPa
Widzialność: 2800 m
pył

METAR: FTTJ 241100Z 01018KT 010V070 2800 DU NSC 30/M01 Q1014 TEMPO 2500 DU

czas: 13:03 (12:03 UTC)

Prognoza

Raport powstał 1 godzina i 3 minut temu, godzina 11:00 UTC
Prognoza ważna od 24 godzina 12 UTC do 25 godzina 18 UTC
Wiatr 15 kt od północ
Widzialność: 2000 m
pył
Stopniowe zmiany
od 24 godzina 15 UTC do 24 godzina 17 UTC
Widzialność: 1000 m
pył
Przejściowo
od 24 godzina 18 UTC do 25 godzina 00 UTC
Widzialność: 0600 m
pył
Stopniowe zmiany
od 25 godzina 07 UTC do 25 godzina 09 UTC
Widzialność: 2500 m
pył

TAF: FTTJ 241100Z 2412/2518 01015KT 2000 DU NSC BECMG 2415/2417 1000 DU TEMPO 2418/2500 0600 DU BECMG 2507/2509 2500 DU

Obserwacja i prognoza pogody dla ponad 4000 lotnisk (raport METAR i TAF).

Dostępne stacje oznaczono żółtymi i czerwonymi punktami na mapie.

Najedź kursorem aby zobaczyć nazwę stacji.

Kliknij aby zobaczyć obserwacje i prognozy pogody.

Aby zmienić mapę: kliknij na zielony przycisk z czarnym krzyżykiem, aby powiększyć; na zielony przycisk z myślnikiem, aby pomniejszyć; na zielone strzałki, aby przejść do map sąsiednich.


METAR-TAF: